KDRA/DRA METAR and TAF weather

Enter ICAO airport designator
Station Type Date Time Source
KDRA METAR 2020/06/02 16:53 UTC NOAA

KDRA 021653Z AUTO VRB03KT 10SM CLR 31/M04 A3006 RMK AO2 SLP129 T03111039


Station Type Date Time Source
KDRA Decoded METAR 2020/06/02 16:53 UTC NOAA

DESERT ROCK AIRPORT, NV, United States (KDRA) 36-38N 116-02W 1006M
Jun 02, 2020 - 12:53 PM EDT / 2020.06.02 1653 UTC
Wind: Variable at 3 MPH (3 KT):0
Visibility: 10 mile(s):0
Sky conditions: clear
Temperature: 88.0 F (31.1 C)
Dew Point: 25.0 F (-3.9 C)
Relative Humidity: 10%
Pressure (altimeter): 30.06 in. Hg (1017 hPa)
ob: KDRA 021653Z AUTO VRB03KT 10SM CLR 31/M04 A3006 RMK AO2 SLP129 T03111039
cycle: 17

Station Type Date Time Source
KDRA TAF 2011/12/07 06:36 UTC NOAA

TAF KDRA 070532Z 0706/0806 VRB04KT P6SM SKC

Example: see airport list